createdAt,value
2018-09-23T00:00:58.474Z,1011.00
2018-09-23T00:01:58.493Z,1010.92
2018-09-23T00:02:58.512Z,1010.92
2018-09-23T00:03:58.531Z,1010.91
2018-09-23T00:04:58.555Z,1010.92
2018-09-23T00:05:58.569Z,1010.92
2018-09-23T00:06:58.590Z,1010.89
2018-09-23T00:07:58.644Z,1010.86
2018-09-23T00:08:58.629Z,1010.87
2018-09-23T00:09:58.648Z,1010.84
2018-09-23T00:10:58.669Z,1010.83
2018-09-23T00:11:58.687Z,1010.79
2018-09-23T00:12:58.703Z,1010.78
2018-09-23T00:13:58.726Z,1010.74
2018-09-23T00:14:58.743Z,1010.75
2018-09-23T00:15:58.763Z,1010.71
2018-09-23T00:16:58.782Z,1010.69
2018-09-23T00:17:58.801Z,1010.67
2018-09-23T00:18:58.821Z,1010.70
2018-09-23T00:19:58.844Z,1010.65
2018-09-23T00:20:58.856Z,1010.66
2018-09-23T00:21:58.878Z,1010.65
2018-09-23T00:22:58.899Z,1010.68
2018-09-23T00:23:58.915Z,1010.66
2018-09-23T00:24:58.935Z,1010.64
2018-09-23T00:25:58.986Z,1010.63
2018-09-23T00:26:58.972Z,1010.63
2018-09-23T00:27:58.991Z,1010.64
2018-09-23T00:28:59.010Z,1010.62
2018-09-23T00:29:59.029Z,1010.63
2018-09-23T00:30:59.049Z,1010.59
2018-09-23T00:31:59.068Z,1010.60
2018-09-23T00:32:59.086Z,1010.62
2018-09-23T00:33:59.105Z,1010.58
2018-09-23T00:34:59.124Z,1010.63
2018-09-23T00:35:59.144Z,1010.60
2018-09-23T00:36:59.162Z,1010.64
2018-09-23T00:37:59.181Z,1010.60
2018-09-23T00:38:59.202Z,1010.58
2018-09-23T00:39:59.221Z,1010.58
2018-09-23T00:40:59.241Z,1010.61
2018-09-23T00:41:59.260Z,1010.54
2018-09-23T00:42:59.279Z,1010.57
2018-09-23T00:43:59.296Z,1010.59
2018-09-23T00:44:59.315Z,1010.64
2018-09-23T00:45:59.336Z,1010.69
2018-09-23T00:46:59.355Z,1010.63
2018-09-23T00:47:59.373Z,1010.70
2018-09-23T00:48:59.391Z,1010.64
2018-09-23T00:49:59.413Z,1010.65
2018-09-23T00:50:59.432Z,1010.66
2018-09-23T00:51:59.451Z,1010.71
2018-09-23T00:52:59.468Z,1010.60
2018-09-23T00:53:59.489Z,1010.57
2018-09-23T00:54:59.507Z,1010.53
2018-09-23T00:55:59.526Z,1010.53
2018-09-23T00:56:59.546Z,1010.51
2018-09-23T00:57:59.565Z,1010.50
2018-09-23T00:58:59.585Z,1010.46
2018-09-23T00:59:59.604Z,1010.45
2018-09-23T01:00:59.619Z,1010.44
2018-09-23T01:01:59.639Z,1010.43
2018-09-23T01:02:59.657Z,1010.42
2018-09-23T01:03:59.679Z,1010.40
2018-09-23T01:04:59.695Z,1010.41
2018-09-23T01:05:59.717Z,1010.39
2018-09-23T01:06:59.734Z,1010.33
2018-09-23T01:07:59.753Z,1010.35
2018-09-23T01:08:59.774Z,1010.32
2018-09-23T01:09:59.792Z,1010.27
2018-09-23T01:10:59.810Z,1010.29
2018-09-23T01:11:59.830Z,1010.30
2018-09-23T01:12:59.851Z,1010.26
2018-09-23T01:13:59.870Z,1010.20
2018-09-23T01:14:59.889Z,1010.20
2018-09-23T01:15:59.908Z,1010.16
2018-09-23T01:16:59.924Z,1010.18
2018-09-23T01:17:59.946Z,1010.16
2018-09-23T01:18:59.967Z,1010.15
2018-09-23T01:19:59.984Z,1010.16
2018-09-23T01:21:00.000Z,1010.14
2018-09-23T01:22:00.026Z,1010.09
2018-09-23T01:23:00.042Z,1010.14
2018-09-23T01:24:00.063Z,1010.12
2018-09-23T01:25:00.077Z,1010.11
2018-09-23T01:26:00.099Z,1010.09
2018-09-23T01:27:00.118Z,1010.09
2018-09-23T01:28:00.137Z,1010.06
2018-09-23T01:29:00.159Z,1010.05
2018-09-23T01:30:00.172Z,1010.04
2018-09-23T01:31:00.194Z,1010.05
2018-09-23T01:32:00.213Z,1010.02
2018-09-23T01:33:00.231Z,1010.02
2018-09-23T01:34:00.252Z,1009.98
2018-09-23T01:35:00.473Z,1010.00
2018-09-23T01:36:00.291Z,1009.95
2018-09-23T01:37:00.311Z,1009.92
2018-09-23T01:38:00.327Z,1009.90
2018-09-23T01:39:00.347Z,1009.85
2018-09-23T01:40:00.365Z,1009.83
2018-09-23T01:41:00.384Z,1009.79
2018-09-23T01:42:00.402Z,1009.74
2018-09-23T01:43:00.422Z,1009.72
2018-09-23T01:44:00.442Z,1009.72
2018-09-23T01:45:00.460Z,1009.67
2018-09-23T01:46:00.477Z,1009.68
2018-09-23T01:47:00.496Z,1009.70
2018-09-23T01:48:00.516Z,1009.65
2018-09-23T01:49:00.534Z,1009.68
2018-09-23T01:50:00.553Z,1009.62
2018-09-23T01:51:00.573Z,1009.65
2018-09-23T01:52:00.592Z,1009.64
2018-09-23T01:53:00.611Z,1009.64
2018-09-23T01:54:00.629Z,1009.62
2018-09-23T01:55:00.649Z,1009.64
2018-09-23T01:56:00.666Z,1009.66
2018-09-23T01:57:00.687Z,1009.64
2018-09-23T01:58:00.703Z,1009.66
2018-09-23T01:59:00.725Z,1009.63
2018-09-23T02:00:00.742Z,1009.60
2018-09-23T02:01:00.762Z,1009.61
2018-09-23T02:02:00.780Z,1009.58
2018-09-23T02:03:00.800Z,1009.57
2018-09-23T02:04:00.820Z,1009.57
2018-09-23T02:05:00.836Z,1009.56
2018-09-23T02:06:00.857Z,1009.57
2018-09-23T02:07:00.874Z,1009.56
2018-09-23T02:08:00.930Z,1009.56
2018-09-23T02:09:00.914Z,1009.55
2018-09-23T02:10:00.931Z,1009.53
2018-09-23T02:11:00.953Z,1009.49
2018-09-23T02:12:00.974Z,1009.50
2018-09-23T02:13:00.989Z,1009.49
2018-09-23T02:14:01.006Z,1009.51
2018-09-23T02:15:01.027Z,1009.49
2018-09-23T02:16:01.047Z,1009.49
2018-09-23T02:17:01.065Z,1009.44
2018-09-23T02:18:01.085Z,1009.37
2018-09-23T02:19:01.104Z,1009.38
2018-09-23T02:20:01.122Z,1009.37
2018-09-23T02:21:01.142Z,1009.37
2018-09-23T02:22:01.169Z,1009.35
2018-09-23T02:23:01.178Z,1009.38
2018-09-23T02:24:01.206Z,1009.33
2018-09-23T02:25:01.218Z,1009.36
2018-09-23T02:26:01.238Z,1009.33
2018-09-23T02:27:01.258Z,1009.37
2018-09-23T02:28:01.279Z,1009.33
2018-09-23T02:29:01.293Z,1009.32
2018-09-23T02:30:01.313Z,1009.28
2018-09-23T02:31:01.331Z,1009.28
2018-09-23T02:32:01.352Z,1009.24
2018-09-23T02:33:01.368Z,1009.25
2018-09-23T02:34:01.390Z,1009.20
2018-09-23T02:35:01.408Z,1009.15
2018-09-23T02:36:01.428Z,1009.11
2018-09-23T02:37:01.446Z,1009.11
2018-09-23T02:38:01.466Z,1009.12
2018-09-23T02:39:01.485Z,1009.11
2018-09-23T02:40:01.505Z,1009.12
2018-09-23T02:41:01.523Z,1009.10
2018-09-23T02:42:01.541Z,1009.12
2018-09-23T02:43:01.560Z,1009.02
2018-09-23T02:44:01.581Z,1008.99
2018-09-23T02:45:01.598Z,1008.91
2018-09-23T02:46:01.618Z,1008.91
2018-09-23T02:47:01.636Z,1008.89
2018-09-23T02:48:01.656Z,1008.89
2018-09-23T02:49:01.672Z,1008.87
2018-09-23T02:50:01.694Z,1008.88
2018-09-23T02:51:01.711Z,1008.85
2018-09-23T02:52:01.729Z,1008.83
2018-09-23T02:53:01.753Z,1008.85
2018-09-23T02:54:01.767Z,1008.85
2018-09-23T02:55:01.788Z,1008.86
2018-09-23T02:56:01.807Z,1008.78
2018-09-23T02:57:01.825Z,1008.77
2018-09-23T02:58:01.845Z,1008.77
2018-09-23T02:59:01.867Z,1008.78
2018-09-23T03:00:01.881Z,1008.81
2018-09-23T03:01:01.901Z,1008.82
2018-09-23T03:02:01.919Z,1008.77
2018-09-23T03:03:01.939Z,1008.74
2018-09-23T03:04:01.993Z,1008.72
2018-09-23T03:05:01.979Z,1008.63
2018-09-23T03:06:01.995Z,1008.64
2018-09-23T03:07:02.014Z,1008.60
2018-09-23T03:08:02.031Z,1008.64
2018-09-23T03:09:02.051Z,1008.71
2018-09-23T03:10:02.068Z,1008.73
2018-09-23T03:11:02.088Z,1008.67
2018-09-23T03:12:02.107Z,1008.59
2018-09-23T03:13:02.126Z,1008.58
2018-09-23T03:14:02.147Z,1008.57
2018-09-23T03:15:02.198Z,1008.57
2018-09-23T03:16:02.184Z,1008.55
2018-09-23T03:17:02.200Z,1008.59
2018-09-23T03:18:02.220Z,1008.51
2018-09-23T03:19:02.241Z,1008.52
2018-09-23T03:20:02.258Z,1008.52
2018-09-23T03:21:02.277Z,1008.53
2018-09-23T03:22:02.295Z,1008.48
2018-09-23T03:23:02.328Z,1008.49
2018-09-23T03:24:02.332Z,1008.46
2018-09-23T03:25:02.350Z,1008.44
2018-09-23T03:26:02.368Z,1008.39
2018-09-23T03:27:02.394Z,1008.38
2018-09-23T03:28:02.408Z,1008.35
2018-09-23T03:29:02.425Z,1008.37
2018-09-23T03:30:02.507Z,1008.40
2018-09-23T03:31:02.463Z,1008.42
2018-09-23T03:32:02.489Z,1008.44
2018-09-23T03:33:02.501Z,1008.49
2018-09-23T03:34:02.520Z,1008.50
2018-09-23T03:35:02.540Z,1008.50
2018-09-23T03:36:02.557Z,1008.45
2018-09-23T03:37:02.578Z,1008.42
2018-09-23T03:38:02.595Z,1008.39
2018-09-23T03:39:02.613Z,1008.31
2018-09-23T03:40:02.636Z,1008.25
2018-09-23T03:41:02.651Z,1008.26
2018-09-23T03:42:02.671Z,1008.21
2018-09-23T03:43:02.690Z,1008.20
2018-09-23T03:44:02.705Z,1008.24
2018-09-23T03:45:02.725Z,1008.16
2018-09-23T03:46:02.745Z,1008.16
2018-09-23T03:47:02.764Z,1008.08
2018-09-23T03:48:02.783Z,1008.07
2018-09-23T03:49:02.802Z,1008.03
2018-09-23T03:50:02.819Z,1008.02
2018-09-23T03:51:02.838Z,1008.05
2018-09-23T03:52:02.858Z,1008.06
2018-09-23T03:53:02.876Z,1008.03
2018-09-23T03:54:02.898Z,1008.01
2018-09-23T03:55:02.915Z,1007.99
2018-09-23T03:56:02.934Z,1007.96
2018-09-23T03:57:02.954Z,1007.87
2018-09-23T03:58:03.038Z,1007.81
2018-09-23T03:59:02.988Z,1007.71
2018-09-23T04:00:03.042Z,1007.66
2018-09-23T04:01:03.028Z,1007.65
2018-09-23T04:02:03.046Z,1007.62
2018-09-23T04:03:03.065Z,1007.58
2018-09-23T04:04:03.083Z,1007.48
2018-09-23T04:05:03.103Z,1007.49
2018-09-23T04:06:03.122Z,1007.45
2018-09-23T04:07:03.139Z,1007.54
2018-09-23T04:08:03.158Z,1007.55
2018-09-23T04:09:03.178Z,1007.55
2018-09-23T04:10:03.197Z,1007.47
2018-09-23T04:11:03.217Z,1007.48
2018-09-23T04:12:03.297Z,1007.51
2018-09-23T04:13:03.253Z,1007.50
2018-09-23T04:14:03.271Z,1007.54
2018-09-23T04:15:03.293Z,1007.57
2018-09-23T04:16:03.311Z,1007.58
2018-09-23T04:17:03.328Z,1007.60
2018-09-23T04:18:03.346Z,1007.62
2018-09-23T04:19:03.366Z,1007.65
2018-09-23T04:20:03.386Z,1007.66
2018-09-23T04:21:03.404Z,1007.66
2018-09-23T04:22:03.421Z,1007.67
2018-09-23T04:23:03.442Z,1007.65
2018-09-23T04:24:03.461Z,1007.68
2018-09-23T04:25:03.479Z,1007.74
2018-09-23T04:26:03.531Z,1007.71
2018-09-23T04:27:03.516Z,1007.70
2018-09-23T04:28:03.534Z,1007.63
2018-09-23T04:29:03.554Z,1007.56
2018-09-23T04:30:03.571Z,1007.53
2018-09-23T04:31:03.595Z,1007.49
2018-09-23T04:32:03.613Z,1007.45
2018-09-23T04:33:03.627Z,1007.43
2018-09-23T04:34:03.649Z,1007.45
2018-09-23T04:35:03.665Z,1007.38
2018-09-23T04:36:03.684Z,1007.38
2018-09-23T04:37:03.702Z,1007.37
2018-09-23T04:38:03.729Z,1007.38
2018-09-23T04:39:03.740Z,1007.43
2018-09-23T04:40:03.760Z,1007.50
2018-09-23T04:41:03.778Z,1007.59
2018-09-23T04:42:03.798Z,1007.63
2018-09-23T04:43:03.817Z,1007.63
2018-09-23T04:44:03.837Z,1007.66
2018-09-23T04:45:03.885Z,1007.67
2018-09-23T04:46:03.876Z,1007.63
2018-09-23T04:47:03.892Z,1007.56
2018-09-23T04:48:03.911Z,1007.55
2018-09-23T04:49:03.927Z,1007.55
2018-09-23T04:50:03.946Z,1007.53
2018-09-23T04:51:03.965Z,1007.47
2018-09-23T04:52:03.984Z,1007.40
2018-09-23T04:53:04.007Z,1007.37
2018-09-23T04:54:04.058Z,1007.35
2018-09-23T04:55:04.042Z,1007.37
2018-09-23T04:56:04.062Z,1007.39
2018-09-23T04:57:04.078Z,1007.42
2018-09-23T04:58:04.098Z,1007.44
2018-09-23T04:59:04.117Z,1007.42
2018-09-23T05:00:04.136Z,1007.41
2018-09-23T05:01:04.153Z,1007.47
2018-09-23T05:02:04.171Z,1007.43
2018-09-23T05:03:04.191Z,1007.46
2018-09-23T05:04:04.212Z,1007.39
2018-09-23T05:05:04.230Z,1007.37
2018-09-23T05:06:04.249Z,1007.32
2018-09-23T05:07:04.267Z,1007.30
2018-09-23T05:08:04.288Z,1007.27
2018-09-23T05:09:04.302Z,1007.25
2018-09-23T05:10:04.321Z,1007.21
2018-09-23T05:11:04.345Z,1007.15
2018-09-23T05:12:04.359Z,1007.12
2018-09-23T05:13:04.377Z,1007.11
2018-09-23T05:14:04.404Z,1007.17
2018-09-23T05:15:04.415Z,1007.24
2018-09-23T05:16:04.434Z,1007.36
2018-09-23T05:17:04.455Z,1007.36
2018-09-23T05:18:04.476Z,1007.39
2018-09-23T05:19:04.492Z,1007.40
2018-09-23T05:20:04.542Z,1007.40
2018-09-23T05:21:04.529Z,1007.40
2018-09-23T05:22:04.550Z,1007.46
2018-09-23T05:23:04.566Z,1007.42
2018-09-23T05:24:04.585Z,1007.40
2018-09-23T05:25:04.606Z,1007.40
2018-09-23T05:26:04.621Z,1007.41
2018-09-23T05:27:04.642Z,1007.38
2018-09-23T05:28:04.696Z,1007.41
2018-09-23T05:29:04.679Z,1007.38
2018-09-23T05:30:04.698Z,1007.34
2018-09-23T05:31:04.753Z,1007.35
2018-09-23T05:32:04.736Z,1007.31
2018-09-23T05:33:04.757Z,1007.29
2018-09-23T05:34:04.773Z,1007.25
2018-09-23T05:35:04.826Z,1007.21
2018-09-23T05:36:04.810Z,1007.24
2018-09-23T05:37:04.830Z,1007.24
2018-09-23T05:38:04.850Z,1007.20
2018-09-23T05:39:04.868Z,1007.23
2018-09-23T05:40:04.885Z,1007.24
2018-09-23T05:41:04.901Z,1007.29
2018-09-23T05:42:04.929Z,1007.23
2018-09-23T05:43:04.940Z,1007.28
2018-09-23T05:44:05.033Z,1007.29
2018-09-23T05:45:04.982Z,1007.31
2018-09-23T05:46:04.999Z,1007.33
2018-09-23T05:47:05.016Z,1007.35
2018-09-23T05:48:05.035Z,1007.31
2018-09-23T05:49:05.080Z,1007.32
2018-09-23T05:50:05.079Z,1007.34
2018-09-23T05:51:05.093Z,1007.25
2018-09-23T05:52:05.108Z,1007.18
2018-09-23T05:53:05.154Z,1007.09
2018-09-23T05:54:05.353Z,1007.01
2018-09-23T05:55:05.165Z,1006.95
2018-09-23T05:56:05.185Z,1006.93
2018-09-23T05:57:05.246Z,1006.98
2018-09-23T05:58:05.222Z,1006.98
2018-09-23T05:59:05.240Z,1007.01
2018-09-23T06:00:05.257Z,1006.96
2018-09-23T06:01:05.276Z,1006.95
2018-09-23T06:02:05.297Z,1006.89
2018-09-23T06:03:05.337Z,1006.91
2018-09-23T06:04:05.334Z,1006.92
2018-09-23T06:05:05.350Z,1006.86
2018-09-23T06:06:05.369Z,1006.85
2018-09-23T06:07:05.390Z,1006.84
2018-09-23T06:08:05.409Z,1006.83
2018-09-23T06:09:05.425Z,1006.84
2018-09-23T06:10:05.446Z,1006.87
2018-09-23T06:11:05.492Z,1006.86
2018-09-23T06:12:05.482Z,1006.89
2018-09-23T06:13:05.500Z,1006.93
2018-09-23T06:14:05.521Z,1006.96
2018-09-23T06:15:05.540Z,1006.99
2018-09-23T06:16:05.557Z,1007.03
2018-09-23T06:17:05.574Z,1007.11
2018-09-23T06:18:05.595Z,1007.15
2018-09-23T06:19:05.614Z,1007.14
2018-09-23T06:20:05.635Z,1007.10
2018-09-23T06:21:05.651Z,1007.04
2018-09-23T06:22:05.668Z,1006.95
2018-09-23T06:23:05.693Z,1006.90
2018-09-23T06:24:05.709Z,1006.91
2018-09-23T06:25:05.734Z,1006.90
2018-09-23T06:26:05.743Z,1006.93
2018-09-23T06:27:05.790Z,1006.94
2018-09-23T06:28:05.781Z,1006.93
2018-09-23T06:29:05.799Z,1006.99
2018-09-23T06:30:05.818Z,1007.07
2018-09-23T06:31:05.837Z,1007.03
2018-09-23T06:32:05.856Z,1006.99
2018-09-23T06:33:05.878Z,1006.96
2018-09-23T06:34:05.897Z,1006.95
2018-09-23T06:35:05.914Z,1006.96
2018-09-23T06:36:05.933Z,1006.92
2018-09-23T06:37:06.008Z,1006.90
2018-09-23T06:38:05.971Z,1006.85
2018-09-23T06:39:05.987Z,1006.82
2018-09-23T06:40:06.008Z,1006.89
2018-09-23T06:41:06.025Z,1006.87
2018-09-23T06:42:06.046Z,1006.85
2018-09-23T06:43:06.065Z,1006.86
2018-09-23T06:44:06.117Z,1006.88
2018-09-23T06:45:06.100Z,1006.80
2018-09-23T06:46:06.120Z,1006.78
2018-09-23T06:47:06.140Z,1006.73
2018-09-23T06:48:06.159Z,1006.67
2018-09-23T06:49:06.177Z,1006.66
2018-09-23T06:50:06.196Z,1006.67
2018-09-23T06:51:06.242Z,1006.65
2018-09-23T06:52:06.234Z,1006.64
2018-09-23T06:53:06.250Z,1006.72
2018-09-23T06:54:06.269Z,1006.74
2018-09-23T06:55:06.290Z,1006.76
2018-09-23T06:56:06.310Z,1006.79
2018-09-23T06:57:06.392Z,1006.83
2018-09-23T06:58:06.344Z,1006.90
2018-09-23T06:59:06.365Z,1006.89
2018-09-23T07:00:06.385Z,1006.92
2018-09-23T07:01:06.404Z,1006.93
2018-09-23T07:02:06.422Z,1006.96
2018-09-23T07:03:06.439Z,1006.92
2018-09-23T07:04:06.460Z,1006.93
2018-09-23T07:05:06.476Z,1006.88
2018-09-23T07:06:06.501Z,1006.90
2018-09-23T07:07:06.517Z,1006.87
2018-09-23T07:08:06.536Z,1006.81
2018-09-23T07:09:06.554Z,1006.74
2018-09-23T07:10:06.572Z,1006.62
2018-09-23T07:11:06.591Z,1006.53
2018-09-23T07:12:06.609Z,1006.52
2018-09-23T07:13:06.677Z,1006.49
2018-09-23T07:14:06.646Z,1006.58
2018-09-23T07:15:06.666Z,1006.59
2018-09-23T07:16:06.685Z,1006.65
2018-09-23T07:17:06.705Z,1006.72
2018-09-23T07:18:06.784Z,1006.78
2018-09-23T07:19:06.744Z,1006.74
2018-09-23T07:20:06.763Z,1006.73
2018-09-23T07:21:06.782Z,1006.73
2018-09-23T07:22:06.799Z,1006.78
2018-09-23T07:23:06.819Z,1006.80
2018-09-23T07:24:06.972Z,1006.83
2018-09-23T07:25:06.856Z,1006.84
2018-09-23T07:26:07.083Z,1006.80
2018-09-23T07:27:06.893Z,1006.78
2018-09-23T07:28:06.914Z,1006.74
2018-09-23T07:29:06.963Z,1006.70
2018-09-23T07:30:07.021Z,1006.67
2018-09-23T07:31:06.970Z,1006.68
2018-09-23T07:32:06.989Z,1006.72
2018-09-23T07:33:07.007Z,1006.70
2018-09-23T07:34:07.029Z,1006.67
2018-09-23T07:35:07.045Z,1006.65
2018-09-23T07:36:07.064Z,1006.62
2018-09-23T07:37:07.144Z,1006.58
2018-09-23T07:38:07.100Z,1006.56
2018-09-23T07:39:07.119Z,1006.51
2018-09-23T07:40:07.138Z,1006.51
2018-09-23T07:41:07.159Z,1006.46
2018-09-23T07:42:07.177Z,1006.45
2018-09-23T07:43:07.197Z,1006.45
2018-09-23T07:44:07.214Z,1006.39
2018-09-23T07:45:07.233Z,1006.38
2018-09-23T07:46:07.252Z,1006.34
2018-09-23T07:47:07.271Z,1006.34
2018-09-23T07:48:07.334Z,1006.31
2018-09-23T07:49:07.311Z,1006.29
2018-09-23T07:50:07.328Z,1006.20
2018-09-23T07:51:07.349Z,1006.20
2018-09-23T07:52:07.366Z,1006.23
2018-09-23T07:53:07.388Z,1006.25
2018-09-23T07:54:07.406Z,1006.24
2018-09-23T07:55:07.425Z,1006.20
2018-09-23T07:56:07.496Z,1006.16
2018-09-23T07:57:07.463Z,1006.16
2018-09-23T07:58:07.481Z,1006.11
2018-09-23T07:59:07.500Z,1006.12
2018-09-23T08:00:07.522Z,1006.15
2018-09-23T08:01:07.537Z,1006.23
2018-09-23T08:02:07.565Z,1006.20
2018-09-23T08:03:07.578Z,1006.27
2018-09-23T08:04:07.595Z,1006.28
2018-09-23T08:05:07.616Z,1006.33
2018-09-23T08:06:07.634Z,1006.33
2018-09-23T08:07:07.653Z,1006.30
2018-09-23T08:08:07.672Z,1006.23
2018-09-23T08:09:07.691Z,1006.23
2018-09-23T08:10:07.712Z,1006.14
2018-09-23T08:11:07.730Z,1006.13
2018-09-23T08:12:07.749Z,1006.15
2018-09-23T08:13:07.905Z,1006.20
2018-09-23T08:14:08.071Z,1006.16
2018-09-23T08:15:07.901Z,1006.11
2018-09-23T08:16:07.824Z,1006.08
2018-09-23T08:17:07.859Z,1006.05
2018-09-23T08:18:07.864Z,1006.04
2018-09-23T08:19:07.932Z,1006.10
2018-09-23T08:20:07.959Z,1006.16
2018-09-23T08:21:07.954Z,1006.15
2018-09-23T08:22:07.941Z,1006.18
2018-09-23T08:23:07.978Z,1006.16
2018-09-23T08:24:07.980Z,1006.09
2018-09-23T08:25:08.004Z,1006.10
2018-09-23T08:26:08.018Z,1006.04
2018-09-23T08:27:08.040Z,1006.05
2018-09-23T08:28:08.055Z,1005.95
2018-09-23T08:29:08.410Z,1005.94
2018-09-23T08:30:08.096Z,1005.96
2018-09-23T08:31:08.115Z,1006.00
2018-09-23T08:32:08.130Z,1005.96
2018-09-23T08:33:08.165Z,1005.92
2018-09-23T08:34:08.170Z,1005.86
2018-09-23T08:35:08.188Z,1005.79
2018-09-23T08:36:08.212Z,1005.70
2018-09-23T08:37:08.229Z,1005.71
2018-09-23T08:38:08.248Z,1005.73
2018-09-23T08:39:08.268Z,1005.80
2018-09-23T08:40:08.288Z,1005.82
2018-09-23T08:41:08.308Z,1005.83
2018-09-23T08:42:08.323Z,1005.75
2018-09-23T08:43:08.386Z,1005.71
2018-09-23T08:44:08.363Z,1005.72
2018-09-23T08:45:08.381Z,1005.74
2018-09-23T08:46:08.406Z,1005.77
2018-09-23T08:47:08.422Z,1005.75
2018-09-23T08:48:08.497Z,1005.75
2018-09-23T08:49:08.460Z,1005.74
2018-09-23T08:50:08.481Z,1005.70
2018-09-23T08:51:08.500Z,1005.75
2018-09-23T08:52:08.575Z,1005.77
2018-09-23T08:53:08.538Z,1005.81
2018-09-23T08:54:08.558Z,1005.87
2018-09-23T08:55:08.578Z,1005.87
2018-09-23T08:56:08.598Z,1005.93
2018-09-23T08:57:08.614Z,1005.88
2018-09-23T08:58:08.635Z,1005.80
2018-09-23T08:59:08.653Z,1005.72
2018-09-23T09:00:08.675Z,1005.72
2018-09-23T09:01:08.696Z,1005.65
2018-09-23T09:02:08.713Z,1005.65
2018-09-23T09:03:08.732Z,1005.68
2018-09-23T09:04:08.782Z,1005.67
2018-09-23T09:05:08.771Z,1005.68
2018-09-23T09:06:08.787Z,1005.66
2018-09-23T09:07:08.810Z,1005.59
2018-09-23T09:08:08.829Z,1005.61
2018-09-23T09:09:08.885Z,1005.63
2018-09-23T09:10:08.865Z,1005.58
2018-09-23T09:11:08.885Z,1005.59
2018-09-23T09:12:08.904Z,1005.54
2018-09-23T09:13:08.925Z,1005.53
2018-09-23T09:14:08.942Z,1005.48
2018-09-23T09:15:08.965Z,1005.41
2018-09-23T09:16:08.983Z,1005.40
2018-09-23T09:17:09.001Z,1005.31
2018-09-23T09:18:09.081Z,1005.28
2018-09-23T09:19:09.041Z,1005.34
2018-09-23T09:20:09.059Z,1005.35
2018-09-23T09:21:09.080Z,1005.34
2018-09-23T09:22:09.097Z,1005.37
2018-09-23T09:23:09.117Z,1005.34
2018-09-23T09:24:09.138Z,1005.32
2018-09-23T09:25:09.157Z,1005.38
2018-09-23T09:26:09.177Z,1005.37
2018-09-23T09:27:09.238Z,1005.38
2018-09-23T09:28:09.218Z,1005.26
2018-09-23T09:29:09.232Z,1005.20
2018-09-23T09:30:09.254Z,1005.12
2018-09-23T09:31:09.271Z,1005.08
2018-09-23T09:32:09.292Z,1005.07
2018-09-23T09:33:09.314Z,1005.03
2018-09-23T09:34:09.329Z,1004.97
2018-09-23T09:35:09.352Z,1004.91
2018-09-23T09:36:09.371Z,1004.90
2018-09-23T09:37:09.393Z,1004.93
2018-09-23T09:38:09.406Z,1004.88
2018-09-23T09:39:09.432Z,1004.86
2018-09-23T09:40:09.450Z,1004.84
2018-09-23T09:41:09.466Z,1004.85
2018-09-23T09:42:09.484Z,1004.82
2018-09-23T09:43:09.506Z,1004.88
2018-09-23T09:44:09.544Z,1004.88
2018-09-23T09:45:09.544Z,1004.86
2018-09-23T09:46:09.562Z,1004.90
2018-09-23T09:47:09.583Z,1004.85
2018-09-23T09:48:09.603Z,1004.83
2018-09-23T09:49:09.625Z,1004.82
2018-09-23T09:50:09.641Z,1004.84
2018-09-23T09:51:09.664Z,1004.84
2018-09-23T09:52:09.678Z,1004.81
2018-09-23T09:53:09.698Z,1004.86
2018-09-23T09:54:09.726Z,1004.87
2018-09-23T09:55:09.738Z,1004.85
2018-09-23T09:56:09.755Z,1004.87
2018-09-23T09:57:09.773Z,1004.87
2018-09-23T09:58:09.796Z,1004.89
2018-09-23T09:59:09.812Z,1004.84
2018-09-23T10:00:09.831Z,1004.81
2018-09-23T10:01:09.850Z,1004.71
2018-09-23T10:02:09.872Z,1004.73
2018-09-23T10:03:09.892Z,1004.66
2018-09-23T10:04:09.975Z,1004.67
2018-09-23T10:05:09.931Z,1004.65
2018-09-23T10:06:09.980Z,1004.64
2018-09-23T10:07:09.966Z,1004.64
2018-09-23T10:08:10.237Z,1004.61
2018-09-23T10:09:10.007Z,1004.63
2018-09-23T10:10:10.026Z,1004.65
2018-09-23T10:11:10.042Z,1004.66
2018-09-23T10:12:10.062Z,1004.65
2018-09-23T10:13:10.081Z,1004.67
2018-09-23T10:14:10.101Z,1004.74
2018-09-23T10:15:10.122Z,1004.78
2018-09-23T10:16:10.140Z,1004.75
2018-09-23T10:17:10.157Z,1004.73
2018-09-23T10:18:10.179Z,1004.70
2018-09-23T10:19:10.201Z,1004.68
2018-09-23T10:20:10.218Z,1004.60
2018-09-23T10:21:10.235Z,1004.46
2018-09-23T10:22:10.253Z,1004.35
2018-09-23T10:23:10.309Z,1004.28
2018-09-23T10:24:10.294Z,1004.22
2018-09-23T10:25:10.313Z,1004.24
2018-09-23T10:26:10.330Z,1004.28
2018-09-23T10:27:10.349Z,1004.27
2018-09-23T10:28:10.371Z,1004.36
2018-09-23T10:29:10.389Z,1004.36
2018-09-23T10:30:10.406Z,1004.38
2018-09-23T10:31:10.523Z,1004.40
2018-09-23T10:32:10.483Z,1004.45
2018-09-23T10:33:10.463Z,1004.46
2018-09-23T10:34:10.483Z,1004.44
2018-09-23T10:35:10.505Z,1004.54
2018-09-23T10:36:10.585Z,1004.57
2018-09-23T10:37:10.542Z,1004.61
2018-09-23T10:38:10.560Z,1004.61
2018-09-23T10:39:10.581Z,1004.65
2018-09-23T10:40:10.598Z,1004.65
2018-09-23T10:41:10.670Z,1004.70
2018-09-23T10:42:10.641Z,1004.79
2018-09-23T10:43:10.657Z,1004.80
2018-09-23T10:44:10.675Z,1004.84
2018-09-23T10:45:10.694Z,1004.93
2018-09-23T10:46:10.711Z,1005.00
2018-09-23T10:47:10.730Z,1005.05
2018-09-23T10:48:10.753Z,1005.02
2018-09-23T10:49:10.767Z,1004.93
2018-09-23T10:50:10.788Z,1004.91
2018-09-23T10:51:10.805Z,1004.91
2018-09-23T10:52:10.824Z,1004.87
2018-09-23T10:53:10.843Z,1004.85
2018-09-23T10:54:10.863Z,1004.80
2018-09-23T10:55:10.882Z,1004.64
2018-09-23T10:56:11.150Z,1004.56
2018-09-23T10:57:10.918Z,1004.48
2018-09-23T10:58:10.938Z,1004.44
2018-09-23T10:59:10.956Z,1004.41
2018-09-23T11:00:10.975Z,1004.45
2018-09-23T11:01:10.993Z,1004.49
2018-09-23T11:02:11.013Z,1004.45
2018-09-23T11:03:11.029Z,1004.37
2018-09-23T11:04:11.078Z,1004.33
2018-09-23T11:05:11.069Z,1004.29
2018-09-23T11:06:11.088Z,1004.35
2018-09-23T11:07:11.105Z,1004.31
2018-09-23T11:08:11.157Z,1004.28
2018-09-23T11:09:11.141Z,1004.20
2018-09-23T11:10:11.165Z,1004.11
2018-09-23T11:11:11.180Z,1004.10
2018-09-23T11:12:11.200Z,1004.03
2018-09-23T11:13:11.215Z,1004.02
2018-09-23T11:14:11.237Z,1004.03
2018-09-23T11:15:11.304Z,1003.98
2018-09-23T11:16:11.272Z,1004.01
2018-09-23T11:17:11.290Z,1003.99
2018-09-23T11:18:11.310Z,1004.04
2018-09-23T11:19:11.329Z,1004.13
2018-09-23T11:20:11.349Z,1004.17
2018-09-23T11:21:11.366Z,1004.22
2018-09-23T11:22:11.385Z,1004.32
2018-09-23T11:23:11.431Z,1004.32
2018-09-23T11:24:11.420Z,1004.33
2018-09-23T11:25:11.439Z,1004.36
2018-09-23T11:26:11.459Z,1004.35
2018-09-23T11:27:11.477Z,1004.28
2018-09-23T11:28:11.496Z,1004.32
2018-09-23T11:29:11.513Z,1004.31
2018-09-23T11:30:11.534Z,1004.29
2018-09-23T11:31:11.553Z,1004.27
2018-09-23T11:32:11.568Z,1004.28
2018-09-23T11:33:11.585Z,1004.17
2018-09-23T11:34:11.606Z,1004.20
2018-09-23T11:35:11.623Z,1004.20
2018-09-23T11:36:11.643Z,1004.20
2018-09-23T11:37:11.660Z,1004.14
2018-09-23T11:38:11.680Z,1004.05
2018-09-23T11:39:11.697Z,1004.06
2018-09-23T11:40:11.719Z,1003.94
2018-09-23T11:41:11.738Z,1003.89
2018-09-23T11:42:11.751Z,1003.88
2018-09-23T11:43:11.774Z,1003.81
2018-09-23T11:44:11.791Z,1003.71
2018-09-23T11:45:11.807Z,1003.67
2018-09-23T11:46:11.826Z,1003.66
2018-09-23T11:47:11.845Z,1003.62
2018-09-23T11:48:11.878Z,1003.62
2018-09-23T11:49:11.886Z,1003.64
2018-09-23T11:50:11.902Z,1003.66
2018-09-23T11:51:11.920Z,1003.60
2018-09-23T11:52:11.993Z,1003.58
2018-09-23T11:53:11.957Z,1003.59
2018-09-23T11:54:11.979Z,1003.56
2018-09-23T11:55:11.993Z,1003.54
2018-09-23T11:56:12.012Z,1003.50
2018-09-23T11:57:12.032Z,1003.50
2018-09-23T11:58:12.048Z,1003.45
2018-09-23T11:59:12.068Z,1003.39
2018-09-23T12:00:12.090Z,1003.40
2018-09-23T12:01:12.105Z,1003.44
2018-09-23T12:02:12.178Z,1003.46
2018-09-23T12:03:12.478Z,1003.50
2018-09-23T12:04:12.159Z,1003.55
2018-09-23T12:05:12.183Z,1003.50
2018-09-23T12:06:12.197Z,1003.59